Time;durP1;ratioP1;P1;durP2;ratioP2;P2;SDS_P1;SDS_P2;PMS_P1;PMS_P2;Temp;Humidity;BMP_temperature;BMP_pressure;BME280_temperature;BME280_humidity;BME280_pressure;Samples;Min_cycle;Max_cycle;Signal;HPM_P1;HPM_P2
2022/06/04 00:02:04;;;;;;;7.15;5.47;;;19.60;99.90;;;;;;4991247;28;20375;-83
2022/06/04 00:04:30;;;;;;;12.15;5.25;;;19.60;99.90;;;;;;4992362;28;20030;-82
2022/06/04 00:06:56;;;;;;;9.48;5.43;;;19.60;99.90;;;;;;4992358;28;20431;-83
2022/06/04 00:09:26;;;;;;;6.97;5.40;;;19.50;99.90;;;;;;4992180;28;20407;-82
2022/06/04 00:17:21;;;;;;;10.65;6.00;;;19.60;99.90;;;;;;4992380;28;20188;-82
2022/06/04 00:19:47;;;;;;;7.28;5.47;;;19.60;99.90;;;;;;4992134;28;20105;-82
2022/06/04 00:22:14;;;;;;;9.60;5.95;;;19.60;99.90;;;;;;4992150;28;20023;-82
2022/06/04 00:24:41;;;;;;;8.35;6.05;;;19.50;99.90;;;;;;4991940;28;20541;-82
2022/06/04 00:27:14;;;;;;;6.00;5.00;;;19.60;99.90;;;;;;4990724;28;20038;-82
2022/06/04 00:29:39;;;;;;;7.88;5.28;;;19.60;99.90;;;;;;4991736;28;20034;-82
2022/06/04 00:32:06;;;;;;;9.63;5.68;;;19.60;99.90;;;;;;4991670;28;20073;-82
2022/06/04 00:34:32;;;;;;;7.85;5.43;;;19.60;99.90;;;;;;4991774;28;20026;-82
2022/06/04 00:36:59;;;;;;;5.47;4.88;;;19.70;99.90;;;;;;4991555;28;20671;-82
2022/06/04 00:39:25;;;;;;;6.65;4.82;;;19.70;99.90;;;;;;4991746;28;20037;-82
2022/06/04 00:42:11;;;;;;;9.80;5.05;;;19.70;99.90;;;;;;4991668;28;20022;-82
2022/06/04 00:44:36;;;;;;;9.07;4.88;;;19.70;99.90;;;;;;4991707;28;20085;-82
2022/06/04 00:47:22;;;;;;;7.55;4.90;;;19.60;99.90;;;;;;4991671;28;20022;-82
2022/06/04 00:49:48;;;;;;;7.95;4.70;;;19.60;99.90;;;;;;4991196;28;20043;-82
2022/06/04 00:52:16;;;;;;;8.88;4.47;;;19.60;99.90;;;;;;4991389;28;20031;-83
2022/06/04 00:54:44;;;;;;;8.57;4.28;;;19.60;99.90;;;;;;4989983;28;20372;-82
2022/06/04 00:57:13;;;;;;;11.23;4.47;;;19.60;99.90;;;;;;4991245;28;20026;-82
2022/06/04 00:59:57;;;;;;;6.47;4.78;;;19.60;99.90;;;;;;4991290;28;20546;-82
2022/06/04 01:02:42;;;;;;;5.93;4.50;;;19.60;99.90;;;;;;4991409;28;20200;-82
2022/06/04 01:05:27;;;;;;;8.52;4.65;;;19.60;99.90;;;;;;4991306;28;20442;-82
2022/06/04 01:08:22;;;;;;;6.88;4.65;;;19.60;99.90;;;;;;4991249;28;20074;-82
2022/06/04 01:10:55;;;;;;;8.85;4.57;;;19.70;99.90;;;;;;4972107;28;20132;-82
2022/06/04 01:13:54;;;;;;;9.07;4.47;;;19.70;99.90;;;;;;4972194;28;20114;-82
2022/06/04 01:16:49;;;;;;;7.53;4.60;;;19.70;99.90;;;;;;4972301;28;20274;-82
2022/06/04 01:19:53;;;;;;;9.02;4.78;;;19.70;99.90;;;;;;4962639;28;20034;-82
2022/06/04 01:22:34;;;;;;;10.23;5.70;;;19.60;99.90;;;;;;4991217;28;20104;-82
2022/06/04 01:25:31;;;;;;;7.38;5.05;;;19.50;99.90;;;;;;4990967;28;20416;-82
2022/06/04 01:28:04;;;;;;;8.45;5.18;;;19.50;99.90;;;;;;4990700;28;20030;-82
2022/06/04 01:30:36;;;;;;;5.05;4.40;;;19.50;99.90;;;;;;4989196;28;20093;-82
2022/06/04 01:33:14;;;;;;;9.10;4.63;;;19.40;99.90;;;;;;4990949;28;20474;-82
2022/06/04 01:36:06;;;;;;;9.10;5.28;;;19.40;99.90;;;;;;4972027;28;20073;-82
2022/06/04 01:38:40;;;;;;;10.88;5.22;;;19.40;99.90;;;;;;4972025;28;20412;-82
2022/06/04 01:41:11;;;;;;;;;;;19.40;99.90;;;;;;4972413;28;20446;-82
2022/06/04 01:43:52;;;;;;;7.35;5.93;;;19.30;99.90;;;;;;4971977;28;20284;-83
2022/06/04 01:46:32;;;;;;;12.25;5.68;;;19.30;99.90;;;;;;4985454;28;20062;-82
2022/06/04 01:49:08;;;;;;;9.57;5.70;;;19.20;99.90;;;;;;4990462;28;20038;-82
2022/06/04 01:51:35;;;;;;;12.00;6.30;;;19.10;99.90;;;;;;4988401;28;20027;-83
2022/06/04 01:54:33;;;;;;;8.50;5.82;;;19.10;99.90;;;;;;4989813;28;20029;-83
2022/06/04 01:57:07;;;;;;;10.25;5.82;;;19.10;99.90;;;;;;4984436;28;20030;-82
2022/06/04 01:59:48;;;;;;;7.32;5.90;;;19.10;99.90;;;;;;4990183;28;20061;-82
2022/06/04 02:02:19;;;;;;;12.15;6.18;;;19.00;99.90;;;;;;4988877;28;20033;-82
2022/06/04 02:04:57;;;;;;;9.32;5.95;;;19.10;99.90;;;;;;4990271;28;20026;-82
2022/06/04 02:07:46;;;;;;;7.78;5.93;;;19.00;99.90;;;;;;4990292;28;20073;-82
2022/06/04 02:10:35;;;;;;;10.70;6.80;;;19.00;99.90;;;;;;4990343;28;20023;-82
2022/06/04 02:13:05;;;;;;;10.90;6.45;;;19.00;99.90;;;;;;4990201;28;20364;-82
2022/06/04 02:15:40;;;;;;;15.60;6.93;;;19.00;99.90;;;;;;4989996;28;20030;-82
2022/06/04 02:18:07;;;;;;;7.85;6.00;;;19.00;99.90;;;;;;4989887;28;20108;-82
2022/06/04 02:20:33;;;;;;;10.30;6.80;;;18.90;99.90;;;;;;4990194;28;20026;-83
2022/06/04 02:22:59;;;;;;;9.50;7.18;;;18.90;99.90;;;;;;4990046;28;20057;-83
2022/06/04 02:25:27;;;;;;;10.32;7.15;;;18.90;99.90;;;;;;4990062;28;20106;-82
2022/06/04 02:27:53;;;;;;;10.93;7.20;;;18.90;99.90;;;;;;4990121;28;20586;-82
2022/06/04 02:30:20;;;;;;;9.52;7.10;;;18.90;99.90;;;;;;4988435;28;20125;-82
2022/06/04 02:32:56;;;;;;;10.65;6.78;;;18.90;99.90;;;;;;4989932;28;20022;-82
2022/06/04 02:35:26;;;;;;;8.77;7.20;;;18.90;99.90;;;;;;4989931;28;20015;-82
2022/06/04 02:38:13;;;;;;;9.13;6.93;;;18.90;99.90;;;;;;4989704;28;20030;-82
2022/06/04 02:40:45;;;;;;;11.65;7.35;;;19.00;99.90;;;;;;4989732;28;20522;-83
2022/06/04 02:43:19;;;;;;;9.85;6.85;;;19.00;99.90;;;;;;4989874;28;20475;-82
2022/06/04 02:46:04;;;;;;;12.18;7.03;;;19.00;99.90;;;;;;4989849;28;20376;-82
2022/06/04 02:48:41;;;;;;;10.50;7.85;;;19.00;99.90;;;;;;4989820;28;20078;-83
2022/06/04 02:51:12;;;;;;;8.38;7.43;;;18.90;99.90;;;;;;4989879;28;20018;-82
2022/06/04 02:53:39;;;;;;;10.55;8.75;;;18.80;99.90;;;;;;4989854;28;20629;-82
2022/06/04 02:56:15;;;;;;;18.05;10.70;;;18.80;99.90;;;;;;4989859;28;20030;-83
2022/06/04 02:58:43;;;;;;;13.85;8.88;;;18.90;99.90;;;;;;4989455;28;20031;-82
2022/06/04 03:01:10;;;;;;;12.38;9.05;;;18.90;99.90;;;;;;4989666;28;20018;-82
2022/06/04 03:03:37;;;;;;;10.73;8.60;;;18.90;99.90;;;;;;4989591;28;20031;-82
2022/06/04 03:06:05;;;;;;;12.25;8.73;;;18.90;99.90;;;;;;4990461;28;20022;-82
2022/06/04 03:08:33;;;;;;;14.23;8.90;;;19.00;99.90;;;;;;4993538;28;20034;-82
2022/06/04 03:10:59;;;;;;;12.65;8.23;;;19.00;99.90;;;;;;4993320;28;20018;-82
2022/06/04 03:13:25;;;;;;;13.85;9.00;;;19.00;99.90;;;;;;4993419;28;20506;-82
2022/06/04 03:15:51;;;;;;;10.63;7.72;;;19.10;99.90;;;;;;4993330;28;20027;-82
2022/06/04 03:18:18;;;;;;;18.08;8.18;;;19.20;99.90;;;;;;4993292;28;20060;-82
2022/06/04 03:20:44;;;;;;;10.80;7.95;;;19.20;99.90;;;;;;4993134;28;20023;-82
2022/06/04 03:23:09;;;;;;;14.23;9.10;;;19.20;99.90;;;;;;4993088;28;20105;-82
2022/06/04 03:25:37;;;;;;;11.95;8.43;;;19.20;99.90;;;;;;4974301;28;20058;-82
2022/06/04 03:28:03;;;;;;;10.63;8.60;;;19.20;99.90;;;;;;4974361;28;20100;-82
2022/06/04 03:30:29;;;;;;;12.65;8.55;;;19.20;99.90;;;;;;4974118;28;20045;-82
2022/06/04 03:32:55;;;;;;;12.40;8.65;;;19.10;99.90;;;;;;4974471;28;20042;-83
2022/06/04 03:35:21;;;;;;;15.43;8.88;;;19.10;99.90;;;;;;4974227;28;20046;-82
2022/06/04 03:37:47;;;;;;;12.55;8.73;;;19.00;99.90;;;;;;4974067;28;20057;-82
2022/06/04 03:40:13;;;;;;;9.85;7.90;;;19.00;99.90;;;;;;4974099;28;20498;-83
2022/06/04 03:42:39;;;;;;;10.90;8.30;;;19.00;99.90;;;;;;4974167;28;20027;-82
2022/06/04 03:45:06;;;;;;;12.30;7.82;;;19.00;99.90;;;;;;4973819;28;20023;-82
2022/06/04 03:47:38;;;;;;;11.88;7.85;;;19.00;99.90;;;;;;4973986;28;20066;-82
2022/06/04 03:50:10;;;;;;;10.77;7.97;;;19.10;99.90;;;;;;4974173;28;20027;-82
2022/06/04 03:52:36;;;;;;;9.68;7.68;;;19.10;99.90;;;;;;4974024;28;20061;-82
2022/06/04 03:55:02;;;;;;;10.35;7.95;;;19.00;99.90;;;;;;4974122;28;20062;-82
2022/06/04 03:57:50;;;;;;;10.07;7.90;;;19.00;99.90;;;;;;4974052;28;20451;-83
2022/06/04 04:00:20;;;;;;;13.75;8.52;;;19.00;99.90;;;;;;4987176;28;20022;-82
2022/06/04 04:02:53;;;;;;;12.57;8.63;;;19.00;99.90;;;;;;4992355;28;20101;-82
2022/06/04 04:05:23;;;;;;;11.60;7.15;;;19.00;99.90;;;;;;4992281;28;20038;-82
2022/06/04 04:07:50;;;;;;;9.30;7.53;;;19.10;99.90;;;;;;4992285;28;20032;-83
2022/06/04 04:10:16;;;;;;;12.63;7.97;;;19.10;99.90;;;;;;4992217;28;20088;-82
2022/06/04 04:12:42;;;;;;;10.02;7.40;;;19.10;99.90;;;;;;4991090;28;20383;-82
2022/06/04 04:15:09;;;;;;;11.00;7.18;;;19.10;99.90;;;;;;4990880;28;20030;-82
2022/06/04 04:17:37;;;;;;;11.00;7.28;;;19.10;99.90;;;;;;4991828;28;20026;-82
2022/06/04 04:20:09;;;;;;;10.70;7.38;;;19.10;99.90;;;;;;4992469;28;20053;-82
2022/06/04 04:22:35;;;;;;;12.75;7.50;;;19.10;99.90;;;;;;4991881;28;20375;-82
2022/06/04 04:25:02;;;;;;;9.18;7.43;;;19.10;99.90;;;;;;4991942;28;20033;-82
2022/06/04 04:27:27;;;;;;;11.95;8.68;;;19.10;99.90;;;;;;4991898;28;20022;-82
2022/06/04 04:29:53;;;;;;;13.40;7.50;;;19.00;99.90;;;;;;4991611;28;20063;-82
2022/06/04 04:32:19;;;;;;;8.65;7.78;;;18.90;99.90;;;;;;4991991;28;20030;-82
2022/06/04 04:34:44;;;;;;;11.85;8.77;;;19.00;99.90;;;;;;4990607;28;20034;-82
2022/06/04 04:37:10;;;;;;;14.00;8.75;;;19.00;99.90;;;;;;4991630;28;20479;-82
2022/06/04 04:39:35;;;;;;;15.45;7.72;;;18.90;99.90;;;;;;4991661;28;20034;-82
2022/06/04 04:42:01;;;;;;;11.98;8.05;;;18.90;99.90;;;;;;4991750;28;20033;-82
2022/06/04 04:44:27;;;;;;;11.55;7.57;;;19.10;99.90;;;;;;4991451;28;20041;-83
2022/06/04 04:46:53;;;;;;;14.98;9.40;;;19.10;99.90;;;;;;4991536;28;20026;-83
2022/06/04 04:49:19;;;;;;;13.98;7.43;;;19.20;99.90;;;;;;4991534;28;20030;-82
2022/06/04 04:51:45;;;;;;;8.88;7.97;;;19.20;99.90;;;;;;4991676;28;20142;-82
2022/06/04 04:54:11;;;;;;;13.85;8.18;;;19.30;99.90;;;;;;4991576;28;20042;-82
2022/06/04 04:56:38;;;;;;;12.43;8.80;;;19.40;99.90;;;;;;4991533;28;20022;-82
2022/06/04 04:59:04;;;;;;;14.75;8.40;;;19.30;99.90;;;;;;4991240;28;20027;-82
2022/06/04 05:01:30;;;;;;;11.02;7.97;;;19.30;99.90;;;;;;4991300;28;20046;-83
2022/06/04 05:03:56;;;;;;;11.30;8.50;;;19.40;99.90;;;;;;4991078;28;20113;-83
2022/06/04 05:06:22;;;;;;;11.88;8.88;;;19.50;99.90;;;;;;4991167;28;20281;-82
2022/06/04 05:08:52;;;;;;;14.27;8.55;;;19.50;99.90;;;;;;4991201;28;20026;-82
2022/06/04 05:11:22;;;;;;;11.32;8.63;;;19.40;99.90;;;;;;4991094;28;20026;-83
2022/06/04 05:13:49;;;;;;;11.13;7.53;;;19.50;99.90;;;;;;4991179;28;20064;-83
2022/06/04 05:16:20;;;;;;;10.98;7.43;;;19.60;99.90;;;;;;4991176;28;20022;-83
2022/06/04 05:18:46;;;;;;;10.27;7.78;;;19.70;99.90;;;;;;4991110;28;20022;-82
2022/06/04 05:21:23;;;;;;;9.23;6.93;;;19.80;99.90;;;;;;4991058;28;20033;-83
2022/06/04 05:23:50;;;;;;;11.23;6.90;;;19.90;99.90;;;;;;4990761;28;20031;-83
2022/06/04 05:26:17;;;;;;;8.68;6.40;;;19.90;99.90;;;;;;4990752;28;20097;-83
2022/06/04 05:28:43;;;;;;;8.95;6.90;;;19.90;99.90;;;;;;4989935;28;20041;-83
2022/06/04 05:31:10;;;;;;;8.73;6.38;;;19.80;99.90;;;;;;4990663;28;20054;-83
2022/06/04 05:33:36;;;;;;;12.05;7.38;;;19.80;99.90;;;;;;4990813;28;20486;-83
2022/06/04 05:36:02;;;;;;;8.27;6.55;;;19.80;99.90;;;;;;4990884;28;20050;-83
2022/06/04 05:38:34;;;;;;;10.80;7.60;;;19.80;99.90;;;;;;4990641;28;20027;-83
2022/06/04 05:41:01;;;;;;;10.45;7.70;;;19.60;99.90;;;;;;4990612;28;20029;-83
2022/06/04 05:43:28;;;;;;;10.45;8.07;;;19.70;99.90;;;;;;4972961;28;20517;-83
2022/06/04 05:46:03;;;;;;;9.40;6.97;;;19.60;99.90;;;;;;4970514;28;20022;-82
2022/06/04 05:48:29;;;;;;;9.82;7.55;;;19.60;99.90;;;;;;4971840;28;20129;-83
2022/06/04 05:50:55;;;;;;;14.13;8.40;;;19.60;99.90;;;;;;4971910;28;20054;-83
2022/06/04 05:53:22;;;;;;;10.63;7.95;;;19.60;99.90;;;;;;4972017;28;20101;-83
2022/06/04 05:55:49;;;;;;;13.18;9.60;;;19.70;99.90;;;;;;4970691;28;20360;-83
2022/06/04 05:58:15;;;;;;;12.65;9.38;;;19.40;99.90;;;;;;4970458;28;20119;-83
2022/06/04 06:00:41;;;;;;;11.32;9.00;;;19.30;99.90;;;;;;4971770;28;20054;-83
2022/06/04 06:03:07;;;;;;;12.10;9.05;;;19.30;99.90;;;;;;4971605;28;20023;-83
2022/06/04 06:05:33;;;;;;;13.52;9.43;;;19.40;99.90;;;;;;4971596;28;20106;-83
2022/06/04 06:07:59;;;;;;;17.73;8.93;;;19.40;99.90;;;;;;4971607;28;20042;-83
2022/06/04 06:10:26;;;;;;;11.07;9.07;;;19.40;99.90;;;;;;4971567;28;20034;-83
2022/06/04 06:12:53;;;;;;;9.43;8.20;;;19.40;99.90;;;;;;4971787;28;20031;-82
2022/06/04 06:15:19;;;;;;;9.45;8.48;;;19.60;99.90;;;;;;4971553;28;20499;-82
2022/06/04 06:17:45;;;;;;;10.77;8.10;;;19.70;99.90;;;;;;4971723;28;20023;-83
2022/06/04 06:20:11;;;;;;;9.68;8.13;;;19.80;99.90;;;;;;4970383;28;20066;-83
2022/06/04 06:22:36;;;;;;;10.48;7.95;;;19.80;99.90;;;;;;4971408;28;20451;-82
2022/06/04 06:25:05;;;;;;;11.85;8.82;;;19.80;99.90;;;;;;4971465;28;20023;-83
2022/06/04 06:27:32;;;;;;;11.95;9.30;;;19.80;99.90;;;;;;4971189;28;20031;-83
2022/06/04 06:29:58;;;;;;;13.05;9.80;;;19.80;99.90;;;;;;4971072;28;20073;-82
2022/06/04 06:32:25;;;;;;;8.88;7.97;;;19.70;99.90;;;;;;4971488;28;20090;-83
2022/06/04 06:34:51;;;;;;;11.80;8.00;;;19.70;99.90;;;;;;4971392;28;20034;-82
2022/06/04 06:37:16;;;;;;;9.48;8.25;;;19.80;99.90;;;;;;4971407;28;20043;-83
2022/06/04 06:39:42;;;;;;;10.52;7.82;;;19.80;99.90;;;;;;4971697;28;20030;-81
2022/06/04 06:42:08;;;;;;;9.00;7.65;;;19.90;99.90;;;;;;4975306;28;20019;-81
2022/06/04 06:44:34;;;;;;;10.85;8.73;;;19.80;99.90;;;;;;4977665;28;20480;-81
2022/06/04 06:47:00;;;;;;;15.45;9.82;;;19.80;99.90;;;;;;4975031;28;20019;-82
2022/06/04 06:49:28;;;;;;;15.73;9.73;;;19.70;99.90;;;;;;4987472;28;20070;-82
2022/06/04 06:52:00;;;;;;;10.05;9.02;;;19.80;99.90;;;;;;4996105;28;20022;-82
2022/06/04 06:54:34;;;;;;;12.40;9.10;;;19.80;99.90;;;;;;4997856;28;20042;-82
2022/06/04 06:57:01;;;;;;;14.52;9.38;;;19.70;99.90;;;;;;4996270;28;20022;-82
2022/06/04 06:59:28;;;;;;;12.02;9.93;;;19.80;99.90;;;;;;5000824;28;20030;-86
2022/06/04 07:01:55;;;;;;;12.48;9.63;;;20.00;99.90;;;;;;4991146;28;20029;-82
2022/06/04 07:04:21;;;;;;;11.48;8.77;;;19.90;99.90;;;;;;4991120;28;20026;-82
2022/06/04 07:06:53;;;;;;;10.82;8.30;;;19.80;99.90;;;;;;4994862;28;20054;-82
2022/06/04 07:09:22;;;;;;;12.32;8.95;;;19.80;99.90;;;;;;4984611;28;20039;-82
2022/06/04 07:11:48;;;;;;;8.75;7.70;;;19.90;99.90;;;;;;4974976;28;20070;-82
2022/06/04 07:14:14;;;;;;;11.88;7.35;;;19.90;99.90;;;;;;4974797;28;20031;-82
2022/06/04 07:16:42;;;;;;;9.75;7.80;;;19.90;99.90;;;;;;4974622;28;20109;-82
2022/06/04 07:19:09;;;;;;;13.23;8.10;;;19.90;99.90;;;;;;4973494;28;20031;-82
2022/06/04 07:21:36;;;;;;;10.73;7.80;;;19.90;99.90;;;;;;4973117;28;20422;-83
2022/06/04 07:24:02;;;;;;;9.98;7.22;;;19.90;99.90;;;;;;4974604;28;20019;-83
2022/06/04 07:26:27;;;;;;;14.52;8.70;;;20.00;99.90;;;;;;4974451;28;20510;-81
2022/06/04 07:28:53;;;;;;;12.18;9.02;;;20.00;99.90;;;;;;4974300;28;20042;-81
2022/06/04 07:31:19;;;;;;;11.57;7.88;;;19.90;99.90;;;;;;4974240;28;20055;-81
2022/06/04 07:33:47;;;;;;;10.35;8.13;;;19.90;99.90;;;;;;4975388;28;20031;-81
2022/06/04 07:36:18;;;;;;;8.95;7.65;;;20.00;99.90;;;;;;4973868;28;20538;-81
2022/06/04 07:38:44;;;;;;;10.05;7.18;;;20.10;99.90;;;;;;4982601;28;20113;-82
2022/06/04 07:41:22;;;;;;;9.40;7.53;;;20.10;99.90;;;;;;4973818;28;20198;-82
2022/06/04 07:43:48;;;;;;;10.73;7.13;;;20.20;99.90;;;;;;4973919;28;20034;-82
2022/06/04 07:46:15;;;;;;;10.80;7.63;;;20.20;99.90;;;;;;4974027;28;20023;-82
2022/06/04 07:48:41;;;;;;;11.60;7.75;;;20.20;99.90;;;;;;4972757;28;20463;-82
2022/06/04 07:51:07;;;;;;;10.55;7.45;;;20.20;99.90;;;;;;4972594;28;20388;-82
2022/06/04 07:53:33;;;;;;;12.07;8.07;;;20.30;99.90;;;;;;4973371;28;20411;-82
2022/06/04 07:56:08;;;;;;;12.23;7.38;;;20.40;99.90;;;;;;4973985;28;20027;-83
2022/06/04 07:58:34;;;;;;;10.00;6.95;;;20.30;99.90;;;;;;4973280;28;20105;-82
2022/06/04 08:01:01;;;;;;;9.18;6.15;;;20.40;99.90;;;;;;4986774;28;20069;-82
2022/06/04 08:03:27;;;;;;;9.40;6.18;;;20.40;99.90;;;;;;4992243;28;20046;-82
2022/06/04 08:05:53;;;;;;;9.25;5.95;;;20.40;99.90;;;;;;4992470;28;20033;-82
2022/06/04 08:08:19;;;;;;;9.70;6.40;;;20.50;99.90;;;;;;4992388;28;20034;-82
2022/06/04 08:10:49;;;;;;;8.82;5.80;;;20.60;99.90;;;;;;4973750;28;20041;-83
2022/06/04 08:13:25;;;;;;;11.00;5.78;;;20.70;99.90;;;;;;4984852;28;20027;-83
2022/06/04 08:15:51;;;;;;;8.02;6.05;;;20.90;99.90;;;;;;4972158;28;20029;-82
2022/06/04 08:18:16;;;;;;;7.97;5.40;;;20.90;99.90;;;;;;4984974;28;20022;-83
2022/06/04 08:20:44;;;;;;;6.90;5.07;;;21.00;99.90;;;;;;4991229;28;20399;-82
2022/06/04 08:23:10;;;;;;;9.15;4.57;;;21.40;99.90;;;;;;4991110;28;20042;-83
2022/06/04 08:25:46;;;;;;;6.45;3.67;;;21.80;99.90;;;;;;4991295;28;20053;-83
2022/06/04 08:28:14;;;;;;;5.88;4.10;;;22.20;99.90;;;;;;4990923;28;20491;-83
2022/06/04 08:30:41;;;;;;;7.60;3.42;;;22.40;99.90;;;;;;4991980;28;20447;-82
2022/06/04 08:33:07;;;;;;;10.93;3.55;;;22.40;99.90;;;;;;4991974;28;20452;-82
2022/06/04 08:35:33;;;;;;;10.75;4.10;;;22.50;99.90;;;;;;4991840;28;20019;-82
2022/06/04 08:37:59;;;;;;;5.13;3.33;;;22.80;99.90;;;;;;4990327;28;20030;-83
2022/06/04 08:40:38;;;;;;;5.35;2.80;;;22.70;99.90;;;;;;4990185;28;20026;-83
2022/06/04 08:43:28;;;;;;;5.80;3.08;;;22.70;99.90;;;;;;4991663;28;20022;-83
2022/06/04 08:45:53;;;;;;;8.65;3.05;;;23.00;99.90;;;;;;4990505;28;20365;-83
2022/06/04 08:48:29;;;;;;;7.25;3.08;;;22.90;99.90;;;;;;4991451;28;20117;-82
2022/06/04 08:50:55;;;;;;;6.28;2.90;;;22.90;99.90;;;;;;4991651;28;20066;-83
2022/06/04 08:53:25;;;;;;;6.07;2.65;;;22.90;99.90;;;;;;4991601;28;20381;-83
2022/06/04 08:59:09;;;;;;;3.88;2.05;;;23.20;99.90;;;;;;4991791;28;20046;-82
2022/06/04 09:01:43;;;;;;;4.20;1.98;;;23.40;99.90;;;;;;4991153;28;20026;-83
2022/06/04 09:04:32;;;;;;;7.15;2.08;;;23.70;99.90;;;;;;4977893;28;20527;-83
2022/06/04 09:06:58;;;;;;;5.15;2.20;;;24.00;99.90;;;;;;4987581;28;20096;-83
2022/06/04 09:10:04;;;;;;;7.13;2.53;;;24.20;99.90;;;;;;4991102;28;20495;-83
2022/06/04 09:12:44;;;;;;;3.80;1.90;;;24.40;99.90;;;;;;4991660;28;20066;-84
2022/06/04 09:15:21;;;;;;;3.35;1.95;;;24.60;99.90;;;;;;4989746;28;20023;-84
2022/06/04 09:17:51;;;;;;;5.75;1.70;;;24.90;99.90;;;;;;4991608;28;20031;-84
2022/06/04 09:20:44;;;;;;;3.38;1.30;;;25.00;99.90;;;;;;4991453;28;20222;-84
2022/06/04 09:23:27;;;;;;;2.75;1.50;;;25.30;99.90;;;;;;4972366;28;20118;-84
2022/06/04 09:25:52;;;;;;;3.70;1.60;;;25.40;99.90;;;;;;4972637;28;20038;-84
2022/06/04 09:28:30;;;;;;;2.35;1.40;;;25.20;99.90;;;;;;4971005;28;20030;-84
2022/06/04 09:31:07;;;;;;;3.88;1.42;;;25.20;99.90;;;;;;4972444;28;20081;-84
2022/06/04 09:34:06;;;;;;;2.03;1.25;;;24.80;99.90;;;;;;4971193;28;20157;-84
2022/06/04 09:36:34;;;;;;;3.03;1.35;;;24.50;99.90;;;;;;4987008;28;20026;-84
2022/06/04 09:39:05;;;;;;;3.38;1.60;;;24.30;99.90;;;;;;4990699;28;20057;-84
2022/06/04 09:41:32;;;;;;;6.18;2.50;;;23.90;99.90;;;;;;4975675;28;20030;-84
2022/06/04 09:44:07;;;;;;;4.80;2.63;;;23.50;99.90;;;;;;4971930;28;20054;-85
2022/06/04 09:46:34;;;;;;;6.07;3.20;;;22.90;99.90;;;;;;4971076;28;20063;-85
2022/06/04 09:49:02;;;;;;;4.85;2.38;;;22.40;99.90;;;;;;4972463;28;20105;-86
2022/06/04 09:51:40;;;;;;;5.30;2.78;;;22.30;99.90;;;;;;4972356;28;20455;-86
2022/06/04 09:54:06;;;;;;;7.20;3.00;;;22.40;99.90;;;;;;4970886;28;20258;-86
2022/06/04 09:56:41;;;;;;;4.28;2.25;;;22.50;99.90;;;;;;4970954;28;20105;-84
2022/06/04 09:59:28;;;;;;;6.05;2.55;;;22.60;99.90;;;;;;4971766;28;20026;-86
2022/06/04 10:02:09;;;;;;;5.15;2.42;;;22.70;99.90;;;;;;4985907;28;20032;-84
2022/06/04 10:04:44;;;;;;;6.13;2.35;;;22.90;99.90;;;;;;4990809;28;20665;-85
2022/06/04 10:07:14;;;;;;;3.60;2.05;;;22.90;99.90;;;;;;4989141;28;20022;-83
2022/06/04 10:09:57;;;;;;;5.22;2.28;;;23.10;99.90;;;;;;4990492;28;20109;-84
2022/06/04 10:15:46;;;;;;;4.05;1.73;;;23.20;99.90;;;;;;4989863;28;20068;-84
2022/06/04 10:18:32;;;;;;;4.55;1.50;;;23.80;99.90;;;;;;4991664;28;20154;-84
2022/06/04 10:21:17;;;;;;;5.88;1.92;;;24.50;99.90;;;;;;4989476;28;20030;-84
2022/06/04 10:23:45;;;;;;;6.13;2.05;;;24.90;99.90;;;;;;4988738;28;20030;-84
2022/06/04 10:26:29;;;;;;;3.78;1.55;;;25.40;99.90;;;;;;4989931;28;20031;-84
2022/06/04 10:29:14;;;;;;;5.15;1.83;;;25.70;99.90;;;;;;4989877;28;20046;-84
2022/06/04 10:31:55;;;;;;;;;;;25.70;99.90;;;;;;4974127;28;20112;-84
2022/06/04 10:34:39;;;;;;;8.90;2.53;;;25.50;99.90;;;;;;4974725;28;20139;-84
2022/06/04 10:37:33;;;;;;;6.50;2.20;;;25.40;99.90;;;;;;4984241;28;20031;-84
2022/06/04 10:40:17;;;;;;;5.65;1.90;;;25.20;99.90;;;;;;4986269;28;20031;-84
2022/06/04 10:42:59;;;;;;;11.93;3.00;;;24.60;99.90;;;;;;4989954;28;20034;-83
2022/06/04 10:45:37;;;;;;;8.65;2.92;;;24.50;99.90;;;;;;4990462;28;20030;-84
2022/06/04 10:48:30;;;;;;;7.22;2.08;;;24.10;99.90;;;;;;4988872;28;20082;-84
2022/06/04 10:51:25;;;;;;;4.43;1.60;;;23.60;99.90;;;;;;4990895;28;20445;-84
2022/06/04 10:54:00;;;;;;;6.85;1.67;;;23.10;99.90;;;;;;4992124;28;20113;-84
2022/06/04 10:56:39;;;;;;;3.38;1.60;;;23.00;99.90;;;;;;4990781;28;20030;-84
2022/06/04 10:59:22;;;;;;;2.40;0.98;;;23.20;99.90;;;;;;4990070;28;20026;-84
2022/06/04 11:01:56;;;;;;;6.68;1.73;;;23.50;99.90;;;;;;4989800;28;20076;-78
2022/06/04 11:05:00;;;;;;;;;;;23.90;99.90;;;;;;4990144;28;20042;-78
2022/06/04 11:07:59;;;;;;;5.82;2.00;;;24.30;99.90;;;;;;4910526;29;19929;-78
2022/06/04 11:10:30;;;;;;;8.95;1.73;;;24.60;99.90;;;;;;4910677;29;20028;-77
2022/06/04 11:13:02;;;;;;;9.32;2.08;;;24.40;99.90;;;;;;4953706;28;20135;-77
2022/06/04 11:15:35;;;;;;;13.30;6.18;;;24.20;99.90;;;;;;4971117;28;20318;-77
2022/06/04 11:18:04;;;;;;;9.77;6.05;;;24.20;99.90;;;;;;4970967;28;20432;-79
2022/06/04 11:20:34;;;;;;;9.13;5.45;;;24.40;99.90;;;;;;4970952;28;20019;-79
2022/06/04 11:23:16;;;;;;;3.28;1.23;;;24.60;99.90;;;;;;4971038;28;20031;-77
2022/06/04 11:25:46;;;;;;;3.70;1.65;;;24.80;99.90;;;;;;4984272;28;20029;-78
2022/06/04 11:28:24;;;;;;;5.28;1.30;;;25.20;99.90;;;;;;4991623;28;20039;-77
2022/06/04 11:31:19;;;;;;;4.18;1.27;;;25.40;99.90;;;;;;4992841;28;20109;-76
2022/06/04 11:34:07;;;;;;;1.92;0.80;;;25.80;99.90;;;;;;4974180;28;20033;-77
2022/06/04 11:36:49;;;;;;;3.88;1.10;;;26.10;99.90;;;;;;4974421;28;20027;-77
2022/06/04 11:39:43;;;;;;;3.22;1.00;;;26.50;99.90;;;;;;4974474;28;20039;-77
2022/06/04 11:42:26;;;;;;;3.45;1.50;;;26.50;99.90;;;;;;4987792;28;20034;-77
2022/06/04 11:44:52;;;;;;;4.35;1.30;;;26.30;99.90;;;;;;4992609;28;20022;-78
2022/06/04 11:47:33;;;;;;;2.88;0.98;;;26.00;99.90;;;;;;4992559;28;20045;-77
2022/06/04 11:50:29;;;;;;;6.18;1.33;;;25.60;99.90;;;;;;4992431;28;20029;-77
2022/06/04 11:53:16;;;;;;;4.10;1.27;;;25.20;99.90;;;;;;4992643;28;20026;-77
2022/06/04 11:55:49;;;;;;;5.03;1.40;;;24.80;99.90;;;;;;4992685;28;20494;-79
2022/06/04 11:58:17;;;;;;;4.72;1.33;;;24.50;99.90;;;;;;4992460;28;20430;-78
2022/06/04 12:00:46;;;;;;;3.67;1.30;;;24.10;99.90;;;;;;4992392;28;20069;-78
2022/06/04 12:03:32;;;;;;;5.35;1.98;;;24.40;99.90;;;;;;4993572;28;20026;-78
2022/06/04 12:06:04;;;;;;;4.47;1.45;;;24.60;99.90;;;;;;4992360;28;20030;-79
2022/06/04 12:08:36;;;;;;;4.28;1.20;;;24.50;99.90;;;;;;4992233;28;20049;-79
2022/06/04 12:11:12;;;;;;;2.67;1.10;;;24.10;99.90;;;;;;4992294;28;20107;-79
2022/06/04 12:14:09;;;;;;;2.05;0.90;;;24.00;99.90;;;;;;4992246;28;20018;-79
2022/06/04 12:16:34;;;;;;;2.13;0.90;;;23.80;99.90;;;;;;4992276;28;20022;-78
2022/06/04 12:24:15;;;;;;;1.73;0.80;;;23.90;99.90;;;;;;4992617;28;20037;-78
2022/06/04 12:25:00;;;;;;;3.10;1.30;;;23.80;99.90;;;;;;4973510;28;20046;-79
2022/06/04 12:27:26;;;;;;;3.13;1.10;;;23.60;99.90;;;;;;4973287;28;20514;-77
2022/06/04 12:29:58;;;;;;;2.35;1.00;;;23.50;99.90;;;;;;4973296;28;20468;-78
2022/06/04 12:32:34;;;;;;;3.65;1.05;;;23.60;99.90;;;;;;4973185;28;20042;-78
2022/06/04 12:35:09;;;;;;;1.65;0.90;;;23.60;99.90;;;;;;4973308;28;20039;-78
2022/06/04 12:37:37;;;;;;;3.47;1.13;;;23.70;99.90;;;;;;4972937;28;20031;-77
2022/06/04 12:40:24;;;;;;;4.60;1.17;;;23.70;99.90;;;;;;4973035;28;20023;-78
2022/06/04 12:42:58;;;;;;;3.88;1.25;;;23.60;99.90;;;;;;4972969;28;20031;-78
2022/06/04 12:45:35;;;;;;;3.75;1.13;;;23.60;99.90;;;;;;4974566;28;20042;-79
2022/06/04 12:48:20;;;;;;;3.65;1.30;;;23.70;99.90;;;;;;4972852;28;20259;-79
2022/06/04 12:50:58;;;;;;;2.42;0.88;;;24.00;99.90;;;;;;4972860;28;20121;-79
2022/06/04 12:53:27;;;;;;;2.55;0.93;;;24.90;99.90;;;;;;4973046;28;20243;-78
2022/06/04 12:56:24;;;;;;;1.77;0.68;;;25.80;99.90;;;;;;4971551;28;20392;-78
2022/06/04 12:58:53;;;;;;;1.73;1.13;;;26.40;99.40;;;;;;4985076;28;20035;-78
2022/06/04 13:01:19;;;;;;;2.65;0.80;;;26.50;99.50;;;;;;4991020;28;20055;-78
2022/06/04 13:03:48;;;;;;;2.45;1.00;;;26.70;98.80;;;;;;4991761;28;20061;-79
2022/06/04 13:06:33;;;;;;;2.80;1.13;;;26.40;99.40;;;;;;4991772;28;20404;-78
2022/06/04 13:09:32;;;;;;;3.08;1.10;;;26.10;99.90;;;;;;4991205;28;20038;-79
2022/06/04 13:12:16;;;;;;;1.67;0.80;;;25.90;99.80;;;;;;4991321;28;20026;-78
2022/06/04 13:14:48;;;;;;;;;;;25.70;99.60;;;;;;4991384;28;20023;-78
2022/06/04 13:17:37;;;;;;;2.85;1.00;;;26.00;99.90;;;;;;4990976;28;19905;-78
2022/06/04 13:20:25;;;;;;;3.58;0.93;;;26.30;99.10;;;;;;4972093;28;20039;-78
2022/06/04 13:23:04;;;;;;;3.63;0.85;;;26.90;98.80;;;;;;4959812;28;20073;-78
2022/06/04 13:25:38;;;;;;;2.90;1.00;;;27.50;97.40;;;;;;4988682;28;20023;-78
2022/06/04 13:28:04;;;;;;;3.63;1.05;;;27.60;97.20;;;;;;4977390;28;20263;-78